Chernovtsk, Chernivtsi International Airport (UKLN)

NameChernivtsi International Airport
CityChernovtsk
CountryUkraine
ICAOUKLN
IATACWC
Altitude243 m
CoordinatesGoogle Map
Live Air TrafficLiveATC.net
METARUKLN 170500Z 00000MPS 5000 BR NSC M01/M02 Q1024 R33/09//70 NOSIG
2019-02-17 05:00:00 Wind: North (0°) 0 m/s - Visibility: 5000 m - Weather: Mist - Temperature: -1 °C - Dew point: -2 °C - Humidity: 93% - Pressure: 1024 hPa

Sorry, no flights used the airport in this database.